sensor_id;sensor_type;location;lat;lon;timestamp;pressure;altitude;pressure_sealevel;temperature;humidity
42289;BME280;30230;47.520;19.016;2022-09-09T00:03:33;98772.22;;;17.33;98.06
42289;BME280;30230;47.520;19.016;2022-09-09T00:05:54;98778.03;;;17.42;96.75
42289;BME280;30230;47.520;19.016;2022-09-09T00:07:59;98762.44;;;17.37;96.84
42289;BME280;30230;47.520;19.016;2022-09-09T00:10:31;98765.72;;;17.39;98.80
42289;BME280;30230;47.520;19.016;2022-09-09T00:14:51;98755.22;;;17.26;97.69
42289;BME280;30230;47.520;19.016;2022-09-09T00:16:59;98767.28;;;17.30;97.25
42289;BME280;30230;47.520;19.016;2022-09-09T00:21:15;98775.41;;;17.25;98.84
42289;BME280;30230;47.520;19.016;2022-09-09T00:23:32;98777.50;;;17.13;99.77
42289;BME280;30230;47.520;19.016;2022-09-09T00:25:52;98769.69;;;17.22;100.00
42289;BME280;30230;47.520;19.016;2022-09-09T00:27:55;98778.91;;;17.21;99.42
42289;BME280;30230;47.520;19.016;2022-09-09T00:30:00;98774.03;;;17.23;99.73
42289;BME280;30230;47.520;19.016;2022-09-09T00:32:12;98778.53;;;17.07;99.69
42289;BME280;30230;47.520;19.016;2022-09-09T00:34:21;98776.00;;;17.00;100.00
42289;BME280;30230;47.520;19.016;2022-09-09T00:36:24;98782.34;;;17.06;100.00
42289;BME280;30230;47.520;19.016;2022-09-09T00:38:36;98785.19;;;17.21;99.89
42289;BME280;30230;47.520;19.016;2022-09-09T00:40:49;98781.00;;;17.08;100.00
42289;BME280;30230;47.520;19.016;2022-09-09T00:42:58;98789.44;;;17.07;100.00
42289;BME280;30230;47.520;19.016;2022-09-09T00:45:22;98795.47;;;17.09;100.00
42289;BME280;30230;47.520;19.016;2022-09-09T00:47:52;98796.28;;;17.09;100.00
42289;BME280;30230;47.520;19.016;2022-09-09T00:56:14;98775.38;;;17.20;100.00
42289;BME280;30230;47.520;19.016;2022-09-09T00:58:14;98780.78;;;17.15;100.00
42289;BME280;30230;47.520;19.016;2022-09-09T01:00:29;98790.59;;;17.16;100.00
42289;BME280;30230;47.520;19.016;2022-09-09T01:02:45;98786.88;;;17.22;100.00
42289;BME280;30230;47.520;19.016;2022-09-09T01:04:49;98789.00;;;17.20;99.98
42289;BME280;30230;47.520;19.016;2022-09-09T01:06:54;98792.72;;;17.09;100.00
42289;BME280;30230;47.520;19.016;2022-09-09T01:09:29;98807.63;;;17.23;99.94
42289;BME280;30230;47.520;19.016;2022-09-09T01:14:20;98787.81;;;17.06;100.00
42289;BME280;30230;47.520;19.016;2022-09-09T01:16:26;98789.44;;;17.07;100.00
42289;BME280;30230;47.520;19.016;2022-09-09T01:18:33;98784.50;;;17.04;100.00
42289;BME280;30230;47.520;19.016;2022-09-09T01:20:49;98779.56;;;17.01;100.00
42289;BME280;30230;47.520;19.016;2022-09-09T01:27:13;98788.88;;;17.05;100.00
42289;BME280;30230;47.520;19.016;2022-09-09T01:29:16;98786.91;;;17.00;100.00
42289;BME280;30230;47.520;19.016;2022-09-09T01:31:21;98798.13;;;17.04;100.00
42289;BME280;30230;47.520;19.016;2022-09-09T01:33:23;98794.84;;;17.02;100.00
42289;BME280;30230;47.520;19.016;2022-09-09T01:35:44;98788.81;;;17.00;100.00
42289;BME280;30230;47.520;19.016;2022-09-09T01:37:45;98787.75;;;17.01;100.00
42289;BME280;30230;47.520;19.016;2022-09-09T01:39:46;98790.00;;;17.09;100.00
42289;BME280;30230;47.520;19.016;2022-09-09T01:41:46;98792.13;;;17.02;100.00
42289;BME280;30230;47.520;19.016;2022-09-09T01:43:47;98791.59;;;17.05;100.00
42289;BME280;30230;47.520;19.016;2022-09-09T01:45:51;98786.66;;;17.02;100.00
42289;BME280;30230;47.520;19.016;2022-09-09T01:47:53;98786.66;;;17.02;100.00
42289;BME280;30230;47.520;19.016;2022-09-09T01:49:53;98789.34;;;16.97;100.00
42289;BME280;30230;47.520;19.016;2022-09-09T01:51:55;98794.91;;;17.07;100.00
42289;BME280;30230;47.520;19.016;2022-09-09T01:53:56;98775.59;;;16.86;100.00
42289;BME280;30230;47.520;19.016;2022-09-09T01:56:21;98794.53;;;16.98;100.00
42289;BME280;30230;47.520;19.016;2022-09-09T02:01:28;98786.97;;;17.05;100.00
42289;BME280;30230;47.520;19.016;2022-09-09T02:03:32;98797.53;;;16.97;100.00
42289;BME280;30230;47.520;19.016;2022-09-09T02:08:13;98777.59;;;16.96;100.00
42289;BME280;30230;47.520;19.016;2022-09-09T02:10:24;98782.25;;;16.96;100.00
42289;BME280;30230;47.520;19.016;2022-09-09T02:12:27;98786.28;;;16.93;100.00
42289;BME280;30230;47.520;19.016;2022-09-09T02:14:35;98794.97;;;16.90;100.00
42289;BME280;30230;47.520;19.016;2022-09-09T02:16:44;98788.25;;;16.98;99.99
42289;BME280;30230;47.520;19.016;2022-09-09T02:19:06;98784.34;;;16.88;100.00
42289;BME280;30230;47.520;19.016;2022-09-09T02:21:10;98788.66;;;16.84;100.00
42289;BME280;30230;47.520;19.016;2022-09-09T02:23:12;98791.25;;;16.96;100.00
42289;BME280;30230;47.520;19.016;2022-09-09T02:25:15;98795.63;;;16.97;99.76
42289;BME280;30230;47.520;19.016;2022-09-09T02:27:18;98794.69;;;16.86;100.00
42289;BME280;30230;47.520;19.016;2022-09-09T02:29:23;98784.59;;;16.87;100.00
42289;BME280;30230;47.520;19.016;2022-09-09T02:31:25;98782.44;;;16.89;99.21
42289;BME280;30230;47.520;19.016;2022-09-09T02:33:30;98792.84;;;16.92;99.36
42289;BME280;30230;47.520;19.016;2022-09-09T02:35:34;98794.63;;;16.81;99.61
42289;BME280;30230;47.520;19.016;2022-09-09T02:37:39;98796.00;;;16.84;99.40
42289;BME280;30230;47.520;19.016;2022-09-09T02:39:40;98799.63;;;16.89;98.25
42289;BME280;30230;47.520;19.016;2022-09-09T02:41:41;98805.28;;;16.83;97.77
42289;BME280;30230;47.520;19.016;2022-09-09T02:43:42;98805.53;;;16.81;97.48
42289;BME280;30230;47.520;19.016;2022-09-09T02:51:44;98812.09;;;16.80;96.49
42289;BME280;30230;47.520;19.016;2022-09-09T02:53:32;98819.94;;;16.77;97.15
42289;BME280;30230;47.520;19.016;2022-09-09T02:57:37;98819.19;;;16.81;97.78
42289;BME280;30230;47.520;19.016;2022-09-09T02:59:39;98821.91;;;16.81;98.25
42289;BME280;30230;47.520;19.016;2022-09-09T03:01:39;98810.13;;;16.76;98.73
42289;BME280;30230;47.520;19.016;2022-09-09T03:03:40;98813.59;;;16.71;100.00
42289;BME280;30230;47.520;19.016;2022-09-09T03:05:43;98818.53;;;16.74;100.00
42289;BME280;30230;47.520;19.016;2022-09-09T03:07:44;98817.00;;;16.61;100.00
42289;BME280;30230;47.520;19.016;2022-09-09T03:09:45;98830.50;;;16.51;100.00
42289;BME280;30230;47.520;19.016;2022-09-09T03:11:45;98832.66;;;16.49;100.00
42289;BME280;30230;47.520;19.016;2022-09-09T03:13:46;98832.00;;;16.42;100.00
42289;BME280;30230;47.520;19.016;2022-09-09T03:15:47;98830.69;;;16.45;100.00
42289;BME280;30230;47.520;19.016;2022-09-09T03:17:48;98846.72;;;16.41;100.00
42289;BME280;30230;47.520;19.016;2022-09-09T03:19:49;98838.81;;;16.39;100.00
42289;BME280;30230;47.520;19.016;2022-09-09T03:21:50;98837.31;;;16.32;100.00
42289;BME280;30230;47.520;19.016;2022-09-09T03:23:51;98833.78;;;16.31;100.00
42289;BME280;30230;47.520;19.016;2022-09-09T03:25:51;98838.13;;;16.32;100.00
42289;BME280;30230;47.520;19.016;2022-09-09T03:27:53;98839.22;;;16.31;100.00
42289;BME280;30230;47.520;19.016;2022-09-09T03:29:55;98837.84;;;16.29;100.00
42289;BME280;30230;47.520;19.016;2022-09-09T03:31:56;98838.00;;;16.22;100.00
42289;BME280;30230;47.520;19.016;2022-09-09T03:33:57;98845.03;;;16.18;100.00
42289;BME280;30230;47.520;19.016;2022-09-09T03:35:58;98837.63;;;16.13;100.00
42289;BME280;30230;47.520;19.016;2022-09-09T03:37:58;98848.25;;;16.15;100.00
42289;BME280;30230;47.520;19.016;2022-09-09T03:39:59;98849.91;;;16.16;100.00
42289;BME280;30230;47.520;19.016;2022-09-09T03:42:00;98839.59;;;16.18;100.00
42289;BME280;30230;47.520;19.016;2022-09-09T03:44:03;98838.25;;;16.21;100.00
42289;BME280;30230;47.520;19.016;2022-09-09T03:46:04;98840.97;;;16.21;100.00
42289;BME280;30230;47.520;19.016;2022-09-09T03:48:04;98839.25;;;16.14;100.00
42289;BME280;30230;47.520;19.016;2022-09-09T03:50:06;98840.56;;;16.12;100.00
42289;BME280;30230;47.520;19.016;2022-09-09T03:52:09;98838.59;;;16.24;100.00
42289;BME280;30230;47.520;19.016;2022-09-09T03:54:09;98852.69;;;16.21;100.00
42289;BME280;30230;47.520;19.016;2022-09-09T03:56:10;98850.56;;;16.23;100.00
42289;BME280;30230;47.520;19.016;2022-09-09T03:58:14;98850.22;;;16.20;100.00
42289;BME280;30230;47.520;19.016;2022-09-09T04:00:15;98836.88;;;16.18;100.00
42289;BME280;30230;47.520;19.016;2022-09-09T04:02:15;98845.41;;;16.27;100.00
42289;BME280;30230;47.520;19.016;2022-09-09T04:04:15;98850.50;;;16.18;100.00
42289;BME280;30230;47.520;19.016;2022-09-09T04:06:16;98854.59;;;16.21;100.00
42289;BME280;30230;47.520;19.016;2022-09-09T04:08:21;98856.25;;;16.22;100.00
42289;BME280;30230;47.520;19.016;2022-09-09T04:10:21;98855.34;;;16.16;100.00
42289;BME280;30230;47.520;19.016;2022-09-09T04:12:22;98854.03;;;16.19;100.00
42289;BME280;30230;47.520;19.016;2022-09-09T04:14:22;98847.25;;;16.21;100.00
42289;BME280;30230;47.520;19.016;2022-09-09T04:16:23;98845.88;;;16.19;100.00
42289;BME280;30230;47.520;19.016;2022-09-09T04:18:23;98851.06;;;16.20;100.00
42289;BME280;30230;47.520;19.016;2022-09-09T04:20:24;98851.88;;;16.21;100.00
42289;BME280;30230;47.520;19.016;2022-09-09T04:22:24;98851.06;;;16.20;100.00
42289;BME280;30230;47.520;19.016;2022-09-09T04:24:25;98848.81;;;16.17;100.00
42289;BME280;30230;47.520;19.016;2022-09-09T04:26:27;98849.41;;;16.19;100.00
42289;BME280;30230;47.520;19.016;2022-09-09T04:28:30;98848.25;;;16.15;100.00
42289;BME280;30230;47.520;19.016;2022-09-09T04:30:30;98851.53;;;16.17;100.00
42289;BME280;30230;47.520;19.016;2022-09-09T04:32:33;98848.19;;;16.10;100.00
42289;BME280;30230;47.520;19.016;2022-09-09T04:34:33;98847.34;;;16.09;100.00
42289;BME280;30230;47.520;19.016;2022-09-09T04:36:34;98848.44;;;16.08;100.00
42289;BME280;30230;47.520;19.016;2022-09-09T04:38:34;98851.41;;;16.07;100.00
42289;BME280;30230;47.520;19.016;2022-09-09T04:40:35;98850.50;;;16.01;100.00
42289;BME280;30230;47.520;19.016;2022-09-09T04:42:36;98850.75;;;16.00;100.00
42289;BME280;30230;47.520;19.016;2022-09-09T04:44:36;98839.78;;;15.95;100.00
42289;BME280;30230;47.520;19.016;2022-09-09T04:46:37;98851.75;;;15.94;100.00
42289;BME280;30230;47.520;19.016;2022-09-09T04:48:38;98845.22;;;15.95;100.00
42289;BME280;30230;47.520;19.016;2022-09-09T04:50:38;98843.06;;;15.97;100.00
42289;BME280;30230;47.520;19.016;2022-09-09T04:52:39;98849.94;;;15.99;100.00
42289;BME280;30230;47.520;19.016;2022-09-09T04:54:39;98845.63;;;16.03;100.00
42289;BME280;30230;47.520;19.016;2022-09-09T04:56:40;98842.31;;;16.01;100.00
42289;BME280;30230;47.520;19.016;2022-09-09T04:58:42;98837.22;;;16.05;100.00
42289;BME280;30230;47.520;19.016;2022-09-09T05:00:43;98847.63;;;16.08;100.00
42289;BME280;30230;47.520;19.016;2022-09-09T05:02:43;98854.72;;;16.09;100.00
42289;BME280;30230;47.520;19.016;2022-09-09T05:04:44;98858.00;;;16.11;100.00
42289;BME280;30230;47.520;19.016;2022-09-09T05:06:44;98859.78;;;16.22;100.00
42289;BME280;30230;47.520;19.016;2022-09-09T05:08:46;98861.63;;;16.33;100.00
42289;BME280;30230;47.520;19.016;2022-09-09T05:10:46;98856.41;;;16.32;100.00
42289;BME280;30230;47.520;19.016;2022-09-09T05:12:53;98859.13;;;16.32;100.00
42289;BME280;30230;47.520;19.016;2022-09-09T05:14:54;98860.22;;;16.31;100.00
42289;BME280;30230;47.520;19.016;2022-09-09T05:16:54;98856.25;;;16.38;100.00
42289;BME280;30230;47.520;19.016;2022-09-09T05:18:55;98855.72;;;16.41;100.00
42289;BME280;30230;47.520;19.016;2022-09-09T05:21:00;98852.66;;;16.38;100.00
42289;BME280;30230;47.520;19.016;2022-09-09T05:23:00;98848.09;;;16.44;100.00
42289;BME280;30230;47.520;19.016;2022-09-09T05:25:00;98849.59;;;16.51;100.00
42289;BME280;30230;47.520;19.016;2022-09-09T05:27:01;98855.34;;;16.72;99.89
42289;BME280;30230;47.520;19.016;2022-09-09T05:29:02;98858.66;;;16.57;98.58
42289;BME280;30230;47.520;19.016;2022-09-09T05:31:07;98853.66;;;16.71;100.00
42289;BME280;30230;47.520;19.016;2022-09-09T05:33:08;98857.69;;;16.68;100.00
42289;BME280;30230;47.520;19.016;2022-09-09T05:35:09;98862.06;;;16.69;100.00
42289;BME280;30230;47.520;19.016;2022-09-09T05:37:10;98853.44;;;16.72;100.00
42289;BME280;30230;47.520;19.016;2022-09-09T05:39:10;98853.75;;;16.76;100.00
42289;BME280;30230;47.520;19.016;2022-09-09T05:41:13;98861.59;;;16.72;99.42
42289;BME280;30230;47.520;19.016;2022-09-09T05:43:15;98866.03;;;16.78;100.00
42289;BME280;30230;47.520;19.016;2022-09-09T05:45:16;98860.16;;;16.86;100.00
42289;BME280;30230;47.520;19.016;2022-09-09T05:47:16;98860.16;;;16.86;100.00
42289;BME280;30230;47.520;19.016;2022-09-09T05:49:17;98856.13;;;16.94;100.00
42289;BME280;30230;47.520;19.016;2022-09-09T05:51:23;98863.56;;;16.99;100.00
42289;BME280;30230;47.520;19.016;2022-09-09T05:53:25;98862.84;;;17.08;100.00
42289;BME280;30230;47.520;19.016;2022-09-09T05:55:26;98859.00;;;17.04;100.00
42289;BME280;30230;47.520;19.016;2022-09-09T05:57:26;98851.63;;;17.05;100.00
42289;BME280;30230;47.520;19.016;2022-09-09T05:59:26;98858.84;;;17.16;99.17
42289;BME280;30230;47.520;19.016;2022-09-09T06:01:31;98862.03;;;17.08;99.34
42289;BME280;30230;47.520;19.016;2022-09-09T06:03:33;98859.63;;;17.11;98.96
42289;BME280;30230;47.520;19.016;2022-09-09T06:05:33;98861.06;;;17.19;99.68
42289;BME280;30230;47.520;19.016;2022-09-09T06:07:35;98870.94;;;17.25;100.00
42289;BME280;30230;47.520;19.016;2022-09-09T06:09:35;98878.69;;;17.33;99.11
42289;BME280;30230;47.520;19.016;2022-09-09T06:11:38;98873.28;;;17.38;97.04
42289;BME280;30230;47.520;19.016;2022-09-09T06:13:38;98862.63;;;17.37;97.66
42289;BME280;30230;47.520;19.016;2022-09-09T06:15:49;98867.34;;;17.47;95.63
42289;BME280;30230;47.520;19.016;2022-09-09T06:17:54;98865.69;;;17.45;94.77
42289;BME280;30230;47.520;19.016;2022-09-09T06:19:55;98869.84;;;17.48;93.52
42289;BME280;30230;47.520;19.016;2022-09-09T06:21:55;98862.78;;;17.52;93.32
42289;BME280;30230;47.520;19.016;2022-09-09T06:23:56;98876.88;;;17.71;93.42
42289;BME280;30230;47.520;19.016;2022-09-09T06:26:19;98873.91;;;17.73;92.69
42289;BME280;30230;47.520;19.016;2022-09-09T06:28:20;98877.75;;;17.77;92.64
42289;BME280;30230;47.520;19.016;2022-09-09T06:30:20;98883.84;;;17.84;92.71
42289;BME280;30230;47.520;19.016;2022-09-09T06:32:21;98881.97;;;17.89;92.24
42289;BME280;30230;47.520;19.016;2022-09-09T06:34:21;98889.13;;;17.95;92.09
42289;BME280;30230;47.520;19.016;2022-09-09T06:36:24;98888.59;;;17.99;90.50
42289;BME280;30230;47.520;19.016;2022-09-09T06:38:24;98884.31;;;18.08;91.26
42289;BME280;30230;47.520;19.016;2022-09-09T06:40:25;98888.97;;;18.12;90.46
42289;BME280;30230;47.520;19.016;2022-09-09T06:42:25;98887.66;;;18.15;90.81
42289;BME280;30230;47.520;19.016;2022-09-09T06:44:26;98880.31;;;18.20;90.82
42289;BME280;30230;47.520;19.016;2022-09-09T06:46:28;98883.91;;;18.26;90.23
42289;BME280;30230;47.520;19.016;2022-09-09T06:48:30;98886.66;;;18.31;90.55
42289;BME280;30230;47.520;19.016;2022-09-09T06:50:31;98884.78;;;18.37;86.57
42289;BME280;30230;47.520;19.016;2022-09-09T06:52:31;98882.66;;;18.49;86.02
42289;BME280;30230;47.520;19.016;2022-09-09T06:54:31;98889.19;;;18.43;85.51
42289;BME280;30230;47.520;19.016;2022-09-09T06:56:37;98888.63;;;18.36;85.56
42289;BME280;30230;47.520;19.016;2022-09-09T06:58:39;98891.94;;;18.43;85.53
42289;BME280;30230;47.520;19.016;2022-09-09T07:00:44;98900.38;;;18.36;85.01
42289;BME280;30230;47.520;19.016;2022-09-09T07:02:44;98900.88;;;18.33;86.26
42289;BME280;30230;47.520;19.016;2022-09-09T07:04:45;98893.78;;;18.32;85.56
42289;BME280;30230;47.520;19.016;2022-09-09T07:06:46;98893.47;;;18.29;85.76
42289;BME280;30230;47.520;19.016;2022-09-09T07:08:53;98899.25;;;18.32;87.77
42289;BME280;30230;47.520;19.016;2022-09-09T07:11:02;98904.91;;;18.20;88.55
42289;BME280;30230;47.520;19.016;2022-09-09T07:13:02;98906.22;;;18.13;87.92
42289;BME280;30230;47.520;19.016;2022-09-09T07:15:03;98901.56;;;18.13;88.04
42289;BME280;30230;47.520;19.016;2022-09-09T07:17:04;98903.03;;;18.26;87.24
42289;BME280;30230;47.520;19.016;2022-09-09T07:19:04;98895.00;;;18.52;85.67
42289;BME280;30230;47.520;19.016;2022-09-09T07:21:05;98907.19;;;18.76;84.07
42289;BME280;30230;47.520;19.016;2022-09-09T07:23:06;98892.50;;;18.92;83.27
42289;BME280;30230;47.520;19.016;2022-09-09T07:25:07;98893.06;;;18.99;82.00
42289;BME280;30230;47.520;19.016;2022-09-09T07:27:08;98894.44;;;19.02;80.95
42289;BME280;30230;47.520;19.016;2022-09-09T07:29:09;98897.53;;;19.26;79.85
42289;BME280;30230;47.520;19.016;2022-09-09T07:31:17;98904.75;;;19.58;80.44
42289;BME280;30230;47.520;19.016;2022-09-09T07:33:18;98902.63;;;19.75;78.47
42289;BME280;30230;47.520;19.016;2022-09-09T07:35:20;98907.00;;;19.86;77.32
42289;BME280;30230;47.520;19.016;2022-09-09T07:37:20;98897.16;;;20.00;77.46
42289;BME280;30230;47.520;19.016;2022-09-09T07:39:22;98912.22;;;20.18;76.53
42289;BME280;30230;47.520;19.016;2022-09-09T07:41:28;98911.94;;;20.30;74.44
42289;BME280;30230;47.520;19.016;2022-09-09T07:43:28;98913.00;;;20.44;72.79
42289;BME280;30230;47.520;19.016;2022-09-09T07:45:29;98908.09;;;20.51;73.49
42289;BME280;30230;47.520;19.016;2022-09-09T07:47:31;98915.22;;;20.63;73.11
42289;BME280;30230;47.520;19.016;2022-09-09T07:49:32;98911.63;;;20.67;73.55
42289;BME280;30230;47.520;19.016;2022-09-09T07:51:35;98914.38;;;20.62;71.41
42289;BME280;30230;47.520;19.016;2022-09-09T07:53:35;98914.38;;;20.62;67.73
42289;BME280;30230;47.520;19.016;2022-09-09T07:55:36;98917.91;;;20.88;67.57
42289;BME280;30230;47.520;19.016;2022-09-09T07:57:37;98923.91;;;20.95;67.64
42289;BME280;30230;47.520;19.016;2022-09-09T07:59:37;98910.69;;;21.02;67.06
42289;BME280;30230;47.520;19.016;2022-09-09T08:01:41;98912.84;;;21.16;67.19
42289;BME280;30230;47.520;19.016;2022-09-09T08:03:42;98911.41;;;21.23;65.94
42289;BME280;30230;47.520;19.016;2022-09-09T08:05:44;98911.69;;;21.32;66.46
42289;BME280;30230;47.520;19.016;2022-09-09T08:07:44;98917.69;;;21.39;66.93
42289;BME280;30230;47.520;19.016;2022-09-09T08:09:45;98917.09;;;21.47;67.52
42289;BME280;30230;47.520;19.016;2022-09-09T08:11:47;98914.81;;;21.59;66.09
42289;BME280;30230;47.520;19.016;2022-09-09T08:13:47;98918.06;;;21.72;65.99
42289;BME280;30230;47.520;19.016;2022-09-09T08:15:48;98910.31;;;21.79;65.13
42289;BME280;30230;47.520;19.016;2022-09-09T08:17:50;98915.47;;;21.85;64.32
42289;BME280;30230;47.520;19.016;2022-09-09T08:19:50;98904.16;;;21.92;64.48
42289;BME280;30230;47.520;19.016;2022-09-09T08:21:51;98911.75;;;22.10;65.53
42289;BME280;30230;47.520;19.016;2022-09-09T08:23:52;98908.59;;;22.22;61.26
42289;BME280;30230;47.520;19.016;2022-09-09T08:25:53;98906.31;;;22.34;62.09
42289;BME280;30230;47.520;19.016;2022-09-09T08:27:53;98907.06;;;22.40;61.91
42289;BME280;30230;47.520;19.016;2022-09-09T08:29:53;98918.44;;;22.57;60.35
42289;BME280;30230;47.520;19.016;2022-09-09T08:31:57;98914.00;;;22.61;60.33
42289;BME280;30230;47.520;19.016;2022-09-09T08:33:58;98912.38;;;22.60;58.85
42289;BME280;30230;47.520;19.016;2022-09-09T08:35:59;98900.78;;;22.63;59.38
42289;BME280;30230;47.520;19.016;2022-09-09T08:38:00;98909.22;;;22.72;58.66
42289;BME280;30230;47.520;19.016;2022-09-09T08:40:00;98914.44;;;22.74;57.97
42289;BME280;30230;47.520;19.016;2022-09-09T08:44:31;98918.16;;;22.88;56.38
42289;BME280;30230;47.520;19.016;2022-09-09T08:51:25;98907.97;;;23.12;56.78
42289;BME280;30230;47.520;19.016;2022-09-09T08:53:29;98920.19;;;23.25;55.52
42289;BME280;30230;47.520;19.016;2022-09-09T08:55:55;98923.69;;;23.31;56.08
42289;BME280;30230;47.520;19.016;2022-09-09T08:58:05;98920.88;;;23.36;56.51
42289;BME280;30230;47.520;19.016;2022-09-09T09:00:10;98928.03;;;23.37;55.64
42289;BME280;30230;47.520;19.016;2022-09-09T09:02:47;98923.47;;;23.46;55.07
42289;BME280;30230;47.520;19.016;2022-09-09T09:05:18;98923.88;;;23.58;53.53
42289;BME280;30230;47.520;19.016;2022-09-09T09:11:55;98915.34;;;23.79;51.42
42289;BME280;30230;47.520;19.016;2022-09-09T09:14:05;98919.97;;;23.83;52.34
42289;BME280;30230;47.520;19.016;2022-09-09T09:16:19;98917.56;;;23.96;50.95
42289;BME280;30230;47.520;19.016;2022-09-09T09:18:22;98916.81;;;23.90;50.99
42289;BME280;30230;47.520;19.016;2022-09-09T09:22:51;98914.56;;;23.92;49.62
42289;BME280;30230;47.520;19.016;2022-09-09T09:25:02;98915.47;;;24.06;50.53
42289;BME280;30230;47.520;19.016;2022-09-09T09:27:21;98901.81;;;24.15;51.69
42289;BME280;30230;47.520;19.016;2022-09-09T09:29:24;98904.47;;;24.20;51.16
42289;BME280;30230;47.520;19.016;2022-09-09T09:31:26;98893.63;;;24.24;48.96
42289;BME280;30230;47.520;19.016;2022-09-09T09:35:40;98893.53;;;24.29;48.74
42289;BME280;30230;47.520;19.016;2022-09-09T09:37:41;98884.66;;;24.32;47.93
42289;BME280;30230;47.520;19.016;2022-09-09T09:39:44;98889.53;;;24.40;48.38
42289;BME280;30230;47.520;19.016;2022-09-09T09:41:44;98891.06;;;24.46;48.12
42289;BME280;30230;47.520;19.016;2022-09-09T09:43:53;98879.31;;;24.40;47.00
42289;BME280;30230;47.520;19.016;2022-09-09T09:45:54;98877.88;;;24.43;47.13
42289;BME280;30230;47.520;19.016;2022-09-09T09:48:09;98889.75;;;24.57;48.56
42289;BME280;30230;47.520;19.016;2022-09-09T09:50:17;98890.59;;;24.72;46.89
42289;BME280;30230;47.520;19.016;2022-09-09T09:52:27;98889.47;;;24.86;45.13
42289;BME280;30230;47.520;19.016;2022-09-09T09:54:31;98892.53;;;24.99;45.00
42289;BME280;30230;47.520;19.016;2022-09-09T09:56:33;98900.13;;;25.07;46.00
42289;BME280;30230;47.520;19.016;2022-09-09T10:00:52;98903.81;;;25.30;45.79
42289;BME280;30230;47.520;19.016;2022-09-09T10:02:53;98899.50;;;25.24;42.76
42289;BME280;30230;47.520;19.016;2022-09-09T10:05:18;98902.25;;;25.37;43.46
42289;BME280;30230;47.520;19.016;2022-09-09T10:07:20;98900.53;;;25.28;44.22
42289;BME280;30230;47.520;19.016;2022-09-09T10:11:44;98889.00;;;25.48;42.82
42289;BME280;30230;47.520;19.016;2022-09-09T10:14:06;98894.38;;;25.67;42.34
42289;BME280;30230;47.520;19.016;2022-09-09T10:16:36;98888.41;;;25.73;40.06
42289;BME280;30230;47.520;19.016;2022-09-09T10:18:47;98889.22;;;25.88;40.70
42289;BME280;30230;47.520;19.016;2022-09-09T10:28:22;98882.28;;;25.40;44.03
42289;BME280;30230;47.520;19.016;2022-09-09T10:32:46;98883.94;;;25.00;45.02
42289;BME280;30230;47.520;19.016;2022-09-09T10:37:16;98882.59;;;24.70;44.99
42289;BME280;30230;47.520;19.016;2022-09-09T10:39:35;98876.78;;;24.85;44.37
42289;BME280;30230;47.520;19.016;2022-09-09T10:41:44;98893.47;;;25.22;45.61
42289;BME280;30230;47.520;19.016;2022-09-09T10:51:04;98883.13;;;26.44;40.35
42289;BME280;30230;47.520;19.016;2022-09-09T10:55:44;98878.22;;;26.81;39.15
42289;BME280;30230;47.520;19.016;2022-09-09T10:59:50;98887.50;;;27.16;39.12
42289;BME280;30230;47.520;19.016;2022-09-09T11:02:16;98884.91;;;27.29;39.60
42289;BME280;30230;47.520;19.016;2022-09-09T11:04:26;98886.91;;;27.37;40.65
42289;BME280;30230;47.520;19.016;2022-09-09T11:06:37;98887.72;;;27.37;38.24
42289;BME280;30230;47.520;19.016;2022-09-09T11:08:39;98882.81;;;27.43;38.35
42289;BME280;30230;47.520;19.016;2022-09-09T11:12:45;98880.72;;;27.57;37.75
42289;BME280;30230;47.520;19.016;2022-09-09T11:14:56;98881.34;;;27.54;38.30
42289;BME280;30230;47.520;19.016;2022-09-09T11:17:22;98874.06;;;27.84;40.43
42289;BME280;30230;47.520;19.016;2022-09-09T11:19:32;98872.72;;;27.64;39.14
42289;BME280;30230;47.520;19.016;2022-09-09T11:21:40;98866.97;;;27.26;38.80
42289;BME280;30230;47.520;19.016;2022-09-09T11:23:44;98870.06;;;27.33;38.23
42289;BME280;30230;47.520;19.016;2022-09-09T11:25:55;98873.84;;;27.55;40.58
42289;BME280;30230;47.520;19.016;2022-09-09T11:37:49;98863.97;;;28.61;38.43
42289;BME280;30230;47.520;19.016;2022-09-09T11:42:23;98871.25;;;27.67;38.70
42289;BME280;30230;47.520;19.016;2022-09-09T11:44:30;98875.34;;;27.52;38.59
42289;BME280;30230;47.520;19.016;2022-09-09T11:46:38;98859.00;;;27.59;39.23
42289;BME280;30230;47.520;19.016;2022-09-09T11:48:43;98847.78;;;27.73;38.54
42289;BME280;30230;47.520;19.016;2022-09-09T11:50:45;98857.56;;;27.88;38.75
42289;BME280;30230;47.520;19.016;2022-09-09T11:52:47;98849.66;;;28.24;37.34
42289;BME280;30230;47.520;19.016;2022-09-09T11:54:49;98850.06;;;28.61;37.79
42289;BME280;30230;47.520;19.016;2022-09-09T11:56:50;98860.34;;;28.69;36.94
42289;BME280;30230;47.520;19.016;2022-09-09T11:59:00;98849.41;;;28.64;35.66
42289;BME280;30230;47.520;19.016;2022-09-09T12:01:13;98858.97;;;28.28;37.79
42289;BME280;30230;47.520;19.016;2022-09-09T12:05:44;98851.34;;;27.91;37.73
42289;BME280;30230;47.520;19.016;2022-09-09T12:07:58;98853.16;;;27.61;39.53
42289;BME280;30230;47.520;19.016;2022-09-09T12:10:19;98856.72;;;27.35;39.79
42289;BME280;30230;47.520;19.016;2022-09-09T12:12:22;98861.34;;;27.00;38.72
42289;BME280;30230;47.520;19.016;2022-09-09T12:14:35;98871.13;;;27.06;38.76
42289;BME280;30230;47.520;19.016;2022-09-09T12:16:37;98878.16;;;27.04;39.54
42289;BME280;30230;47.520;19.016;2022-09-09T12:18:46;98879.22;;;26.85;38.95
42289;BME280;30230;47.520;19.016;2022-09-09T12:21:03;98884.66;;;26.99;38.95
42289;BME280;30230;47.520;19.016;2022-09-09T12:23:31;98877.09;;;27.39;37.87